ELS weather

Ben Schoeman Airport
East London, Eastern Cape, South Africa

Public forecast

Using degrees Celsius for public forecast. Weather courtesy of forecast.io.

METAR (pilot weather report)

Retrieved 2018/10/16 05:00 UTC (12 minutes ago):

FAEL 160500Z 27010KT CAVOK 17/12 Q1021

TAF (pilot weather forecast)

Forecast is more than 12 hours old.

Retrieved 2018/08/22 03:00 UTC (2 months ago):

TAF FAEL 220300Z 2203/2212 VRB02KT 4000 -RA BKN003 OVC005 BECMG 2209/2210 18005KT 9999 BKN015 TX18/2211Z TN10/2203Z